Time;durP1;ratioP1;P1;durP2;ratioP2;P2;SDS_P1;SDS_P2;PMS_P1;PMS_P2;Temp;Humidity;BMP_temperature;BMP_pressure;BME280_temperature;BME280_humidity;BME280_pressure;Samples;Min_cycle;Max_cycle;Signal;HPM_P1;HPM_P2
2021/03/14 00:01:03;;;;;;;15.52;3.00;;;;;;;3.57;72.13;100118.13;5089851;28;20020;-73
2021/03/14 00:03:29;;;;;;;15.77;3.00;;;;;;;3.54;72.83;100117.16;5093762;28;20028;-73
2021/03/14 00:05:56;;;;;;;15.68;2.92;;;;;;;3.51;73.10;100123.22;5092650;28;20084;-74
2021/03/14 00:08:24;;;;;;;18.38;3.25;;;;;;;3.44;73.51;100121.31;5093276;28;20024;-75
2021/03/14 00:10:53;;;;;;;14.60;3.35;;;;;;;3.41;72.87;100129.09;5091524;28;20097;-74
2021/03/14 00:13:30;;;;;;;14.07;3.00;;;;;;;3.42;73.39;100139.59;5092465;28;20040;-74
2021/03/14 00:15:56;;;;;;;20.35;3.45;;;;;;;3.41;74.01;100137.81;5092496;28;20115;-74
2021/03/14 00:18:27;;;;;;;14.05;3.10;;;;;;;3.41;73.88;100139.56;5093323;28;20024;-75
2021/03/14 00:20:52;;;;;;;13.50;2.92;;;;;;;3.40;73.65;100141.25;5092639;28;20032;-75
2021/03/14 00:23:17;;;;;;;19.58;3.65;;;;;;;3.33;74.88;100148.94;5092643;28;20034;-72
2021/03/14 00:25:43;;;;;;;18.30;3.83;;;;;;;3.26;75.49;100155.75;5092347;28;20031;-75
2021/03/14 00:28:08;;;;;;;17.08;3.60;;;;;;;3.28;75.40;100162.78;5092064;28;20024;-73
2021/03/14 00:30:33;;;;;;;17.90;3.70;;;;;;;3.30;74.91;100160.19;5093930;28;20529;-72
2021/03/14 00:32:59;;;;;;;18.80;3.50;;;;;;;3.29;75.51;100167.16;5092279;28;20467;-74
2021/03/14 00:35:24;;;;;;;15.68;3.38;;;;;;;3.29;75.30;100174.09;5092900;28;20039;-75
2021/03/14 00:37:51;;;;;;;19.13;3.70;;;;;;;3.29;75.53;100168.88;5091497;28;20108;-74
2021/03/14 00:40:17;;;;;;;18.02;4.10;;;;;;;3.30;76.16;100173.25;5092899;28;20081;-73
2021/03/14 00:42:43;;;;;;;19.65;4.22;;;;;;;3.30;76.44;100176.75;5092069;28;20016;-72
2021/03/14 00:45:09;;;;;;;18.40;3.80;;;;;;;3.37;76.14;100185.63;5092928;28;20107;-74
2021/03/14 00:47:36;;;;;;;19.48;4.35;;;;;;;3.40;76.01;100188.28;5091267;28;20034;-72
2021/03/14 00:50:07;;;;;;;20.67;4.53;;;;;;;3.43;76.73;100197.94;5092136;28;20107;-75
2021/03/14 00:52:33;;;;;;;21.10;4.72;;;;;;;3.46;76.98;100193.66;5091318;28;20030;-74
2021/03/14 00:54:58;;;;;;;18.10;4.82;;;;;;;3.49;77.35;100201.59;5093056;28;20016;-75
2021/03/14 00:57:23;;;;;;;21.17;5.15;;;;;;;3.47;77.63;100200.66;5092362;28;20031;-74
2021/03/14 00:59:49;;;;;;;22.02;4.80;;;;;;;3.46;78.47;100198.88;5092221;28;20038;-75
2021/03/14 01:02:14;;;;;;;19.67;4.70;;;;;;;3.54;78.00;100208.63;5092111;28;20028;-75
2021/03/14 01:04:39;;;;;;;19.10;4.70;;;;;;;3.60;78.15;100207.06;5092832;28;20020;-75
2021/03/14 01:07:05;;;;;;;21.20;5.57;;;;;;;3.62;78.85;100223.63;5091745;28;20386;-75
2021/03/14 01:09:30;;;;;;;21.65;5.88;;;;;;;3.65;78.74;100220.22;5092013;28;20494;-75
2021/03/14 01:11:55;;;;;;;23.92;6.50;;;;;;;3.64;78.89;100223.66;5092733;28;20032;-75
2021/03/14 01:14:21;;;;;;;20.00;5.78;;;;;;;3.64;78.98;100218.44;5091367;28;20099;-72
2021/03/14 01:16:46;;;;;;;20.88;5.50;;;;;;;3.63;79.08;100216.69;5092223;28;20030;-73
2021/03/14 01:19:11;;;;;;;22.77;5.90;;;;;;;3.63;79.22;100229.78;5091584;28;20031;-75
2021/03/14 01:21:37;;;;;;;22.50;5.85;;;;;;;3.64;79.76;100221.06;5093634;28;20039;-74
2021/03/14 01:24:02;;;;;;;24.85;6.60;;;;;;;3.63;79.75;100233.25;5092908;28;20107;-74
2021/03/14 01:26:28;;;;;;;22.80;6.50;;;;;;;3.62;80.15;100233.22;5091727;28;20475;-75
2021/03/14 01:28:53;;;;;;;24.60;6.03;;;;;;;3.60;79.80;100233.19;5091211;28;20028;-74
2021/03/14 01:31:18;;;;;;;20.63;5.75;;;;;;;3.62;79.59;100233.22;5092679;28;20020;-75
2021/03/14 01:33:44;;;;;;;23.50;6.07;;;;;;;3.58;79.89;100247.06;5091083;28;20390;-74
2021/03/14 01:36:09;;;;;;;26.15;6.40;;;;;;;3.54;79.83;100232.16;5092035;28;20111;-75
2021/03/14 01:38:35;;;;;;;23.42;5.78;;;;;;;3.51;79.48;100242.53;5092337;28;20080;-74
2021/03/14 01:41:01;;;;;;;21.30;5.93;;;;;;;3.42;79.91;100248.44;5091480;28;20035;-75
2021/03/14 01:43:29;;;;;;;24.27;5.68;;;;;;;3.42;79.28;100248.44;5091372;28;20032;-73
2021/03/14 01:45:55;;;;;;;22.70;5.13;;;;;;;3.38;79.14;100252.72;5090746;28;20486;-75
2021/03/14 01:48:24;;;;;;;20.73;5.20;;;;;;;3.36;79.24;100254.38;5092060;28;20028;-75
2021/03/14 01:50:50;;;;;;;24.02;5.28;;;;;;;3.23;79.38;100248.00;5090766;28;20021;-75
2021/03/14 01:53:15;;;;;;;21.17;5.10;;;;;;;3.20;79.55;100257.47;5093216;28;20035;-75
2021/03/14 01:55:41;;;;;;;22.98;5.13;;;;;;;3.17;79.29;100270.47;5090629;28;20028;-75
2021/03/14 01:58:07;;;;;;;22.73;5.32;;;;;;;3.08;79.83;100269.38;5092052;28;20028;-73
2021/03/14 02:00:33;;;;;;;23.08;5.40;;;;;;;3.01;80.14;100275.28;5091119;28;20020;-75
2021/03/14 02:02:58;;;;;;;21.83;5.68;;;;;;;2.93;80.52;100279.44;5092451;28;20024;-75
2021/03/14 02:05:23;;;;;;;22.70;5.40;;;;;;;2.87;80.75;100281.88;5093407;28;20038;-75
2021/03/14 02:07:52;;;;;;;20.02;5.38;;;;;;;2.85;80.76;100270.50;5095043;28;20063;-74
2021/03/14 02:10:22;;;;;;;22.65;5.63;;;;;;;2.82;80.90;100288.72;5093756;28;20055;-74
2021/03/14 02:12:52;;;;;;;22.58;5.47;;;;;;;2.78;80.82;100291.25;5095382;28;20111;-74
2021/03/14 02:15:18;;;;;;;21.60;5.38;;;;;;;2.75;81.02;100299.00;5095062;28;20181;-74
2021/03/14 02:17:47;;;;;;;22.23;4.70;;;;;;;2.74;81.20;100296.34;5095339;28;20394;-72
2021/03/14 02:20:17;;;;;;;21.33;4.97;;;;;;;2.78;80.77;100301.69;5094629;28;20028;-75
2021/03/14 02:22:44;;;;;;;21.58;4.88;;;;;;;2.85;80.40;100296.63;5093495;28;20039;-74
2021/03/14 02:25:20;;;;;;;23.70;5.88;;;;;;;2.91;80.59;100300.31;5095825;28;20032;-73
2021/03/14 02:27:46;;;;;;;21.05;5.35;;;;;;;2.92;80.52;100301.16;5094260;28;20028;-75
2021/03/14 02:30:12;;;;;;;20.92;5.13;;;;;;;2.93;79.88;100305.56;5094244;28;20478;-75
2021/03/14 02:32:38;;;;;;;21.33;5.15;;;;;;;2.87;80.42;100308.88;5091909;28;20095;-75
2021/03/14 02:35:05;;;;;;;21.67;5.65;;;;;;;2.81;80.53;100320.88;5094041;28;20454;-75
2021/03/14 02:37:32;;;;;;;22.70;5.50;;;;;;;2.77;80.46;100322.53;5076270;28;20031;-75
2021/03/14 02:39:59;;;;;;;23.55;5.38;;;;;;;2.71;80.68;100320.63;5095630;28;20036;-74
2021/03/14 02:42:26;;;;;;;20.02;5.22;;;;;;;2.67;80.60;100324.00;5094455;28;20115;-74
2021/03/14 02:44:53;;;;;;;22.60;5.75;;;;;;;2.65;81.13;100325.69;5095219;28;20024;-75
2021/03/14 02:47:21;;;;;;;24.23;5.78;;;;;;;2.70;81.06;100329.28;5092241;28;20027;-74
2021/03/14 02:49:49;;;;;;;21.90;5.55;;;;;;;2.74;80.75;100332.91;5094079;28;20489;-75
2021/03/14 02:52:15;;;;;;;22.67;5.80;;;;;;;2.74;80.43;100336.38;5094350;28;20372;-75
2021/03/14 02:54:41;;;;;;;22.27;6.22;;;;;;;2.73;80.47;100339.81;5095448;28;20024;-67
2021/03/14 02:57:08;;;;;;;24.27;6.30;;;;;;;2.65;81.21;100340.44;5093815;28;20028;-69
2021/03/14 02:59:34;;;;;;;21.67;5.60;;;;;;;2.65;81.13;100345.66;5094652;28;20024;-74
2021/03/14 03:02:00;;;;;;;23.63;6.10;;;;;;;2.57;81.68;100348.94;5093887;28;20020;-74
2021/03/14 03:04:26;;;;;;;23.05;6.05;;;;;;;2.55;81.43;100344.50;5094730;28;20032;-75
2021/03/14 03:06:57;;;;;;;23.13;6.32;;;;;;;2.57;81.72;100354.16;5093677;28;20031;-74
2021/03/14 03:09:23;;;;;;;23.90;6.38;;;;;;;2.63;81.68;100358.69;5094469;28;20044;-74
2021/03/14 03:11:50;;;;;;;22.80;5.95;;;;;;;2.65;81.84;100367.44;5093501;28;20024;-75
2021/03/14 03:14:17;;;;;;;21.70;6.10;;;;;;;2.68;81.99;100367.53;5093142;28;20049;-74
2021/03/14 03:16:47;;;;;;;21.70;6.13;;;;;;;2.75;81.24;100371.19;5093569;28;21261;-75
2021/03/14 03:19:15;;;;;;;24.48;7.05;;;;;;;2.79;81.52;100376.53;5090675;28;20024;-75
2021/03/14 03:21:41;;;;;;;24.90;6.85;;;;;;;2.84;81.28;100370.56;5094595;28;20062;-74
2021/03/14 03:24:08;;;;;;;21.83;6.25;;;;;;;2.85;80.97;100382.78;5095222;28;20501;-70
2021/03/14 03:26:41;;;;;;;22.02;6.70;;;;;;;2.90;80.60;100383.81;5093843;28;20096;-74
2021/03/14 03:29:08;;;;;;;23.20;6.50;;;;;;;2.92;80.43;100382.13;5094936;28;20028;-75
2021/03/14 03:31:34;;;;;;;24.38;6.95;;;;;;;2.92;80.54;100387.34;5093258;28;20012;-74
2021/03/14 03:34:00;;;;;;;24.63;6.20;;;;;;;2.95;80.38;100388.28;5094162;28;20030;-75
2021/03/14 03:36:25;;;;;;;25.48;7.07;;;;;;;2.98;80.17;100384.88;5092765;28;20107;-74
2021/03/14 03:38:50;;;;;;;22.50;6.50;;;;;;;2.99;80.01;100386.66;5092817;28;20027;-74
2021/03/14 03:41:16;;;;;;;21.70;6.90;;;;;;;2.99;80.20;100393.63;5094754;28;20032;-74
2021/03/14 03:43:43;;;;;;;25.27;7.13;;;;;;;3.01;79.55;100392.81;5092827;28;20051;-75
2021/03/14 03:46:09;;;;;;;28.58;7.50;;;;;;;2.96;80.21;100392.69;5093850;28;20067;-72
2021/03/14 03:48:47;;;;;;;23.02;6.72;;;;;;;2.95;79.72;100390.91;5093170;28;20497;-74
2021/03/14 03:51:16;;;;;;;23.25;6.88;;;;;;;2.87;80.15;100391.53;5093575;28;20063;-74
2021/03/14 03:53:42;;;;;;;22.45;6.72;;;;;;;2.84;80.17;100401.88;5092101;28;20020;-74
2021/03/14 03:56:09;;;;;;;24.17;6.88;;;;;;;2.76;80.43;100402.56;5094866;28;20024;-65
2021/03/14 03:58:35;;;;;;;24.15;6.30;;;;;;;2.69;80.98;100407.56;5094003;28;20115;-74
2021/03/14 04:01:03;;;;;;;20.30;6.30;;;;;;;2.69;80.58;100405.81;5093034;28;20038;-74
2021/03/14 04:03:34;;;;;;;24.13;6.78;;;;;;;2.63;81.03;100420.44;5093437;28;20066;-73
2021/03/14 04:06:00;;;;;;;24.63;7.05;;;;;;;2.66;80.79;100415.31;5095664;28;20463;-73
2021/03/14 04:08:26;;;;;;;23.42;7.05;;;;;;;2.61;80.99;100418.66;5091524;28;20446;-75
2021/03/14 04:10:52;;;;;;;21.77;6.75;;;;;;;2.65;80.89;100419.66;5092920;28;20479;-63
2021/03/14 04:13:18;;;;;;;21.60;5.78;;;;;;;2.71;80.15;100419.81;5074489;28;20065;-74
2021/03/14 04:15:43;;;;;;;19.98;5.75;;;;;;;2.67;80.58;100427.53;5093470;28;20103;-74
2021/03/14 04:18:11;;;;;;;23.00;6.32;;;;;;;2.70;80.15;100433.72;5093826;28;20036;-74
2021/03/14 04:20:38;;;;;;;24.50;6.50;;;;;;;2.63;80.46;100439.59;5093040;28;20024;-74
2021/03/14 04:23:06;;;;;;;21.88;5.97;;;;;;;2.56;81.21;100441.16;5091715;28;20020;-72
2021/03/14 04:25:32;;;;;;;21.48;6.03;;;;;;;2.48;81.41;100441.75;5093175;28;20031;-65
2021/03/14 04:27:59;;;;;;;23.55;5.85;;;;;;;2.38;81.68;100436.22;5092215;28;20085;-74
2021/03/14 04:30:26;;;;;;;22.50;6.07;;;;;;;2.37;81.63;100442.28;5092949;28;20069;-74
2021/03/14 04:32:53;;;;;;;23.00;6.40;;;;;;;2.30;82.18;100449.88;5092043;28;20032;-74
2021/03/14 04:35:19;;;;;;;24.35;6.75;;;;;;;2.27;82.38;100440.22;5092721;28;20155;-74
2021/03/14 04:37:45;;;;;;;21.45;5.63;;;;;;;2.25;82.00;100447.13;5073227;28;20142;-74
2021/03/14 04:40:13;;;;;;;21.85;6.18;;;;;;;2.23;82.26;100446.19;5092459;28;20042;-75
2021/03/14 04:42:40;;;;;;;23.50;6.15;;;;;;;2.20;82.36;100440.84;5092447;28;20343;-71
2021/03/14 04:45:08;;;;;;;23.20;6.05;;;;;;;2.18;82.23;100442.53;5094755;28;20420;-74
2021/03/14 04:47:34;;;;;;;21.20;5.90;;;;;;;2.15;82.46;100442.44;5092446;28;20059;-73
2021/03/14 04:50:00;;;;;;;22.80;6.43;;;;;;;2.13;82.57;100452.84;5091906;28;20028;-73
2021/03/14 04:52:26;;;;;;;21.50;5.68;;;;;;;2.16;82.46;100459.88;5093107;28;20020;-73
2021/03/14 04:54:53;;;;;;;23.13;6.05;;;;;;;2.17;82.87;100461.63;5092062;28;20027;-72
2021/03/14 04:57:20;;;;;;;22.45;5.60;;;;;;;2.21;82.80;100464.41;5092786;28;20035;-73
2021/03/14 04:59:46;;;;;;;22.50;5.90;;;;;;;2.22;82.72;100470.50;5091744;28;20056;-73
2021/03/14 05:02:13;;;;;;;22.10;6.20;;;;;;;2.20;82.89;100478.28;5073521;28;20036;-74
2021/03/14 05:04:41;;;;;;;24.38;6.53;;;;;;;2.31;82.87;100470.78;5091786;28;20028;-74
2021/03/14 05:07:08;;;;;;;22.52;6.28;;;;;;;2.32;83.71;100482.13;5092495;28;20493;-74
2021/03/14 05:09:36;;;;;;;24.63;6.32;;;;;;;2.25;85.73;100488.84;5091028;28;20063;-72
2021/03/14 05:12:02;;;;;;;24.33;6.82;;;;;;;2.19;87.88;100488.66;5092673;28;20379;-73
2021/03/14 05:14:27;;;;;;;25.30;6.95;;;;;;;2.06;91.46;100492.59;5090666;28;20023;-73
2021/03/14 05:16:53;;;;;;;26.40;7.43;;;;;;;2.00;93.67;100500.22;5092123;28;20438;-75
2021/03/14 05:19:19;;;;;;;22.83;7.35;;;;;;;1.94;95.61;100500.88;5091564;28;20035;-77
2021/03/14 05:21:44;;;;;;;24.63;7.68;;;;;;;1.89;98.05;100513.75;5092528;28;20035;-72
2021/03/14 05:24:12;;;;;;;23.63;7.95;;;;;;;1.86;98.59;100521.47;5091495;28;20099;-73
2021/03/14 05:26:40;;;;;;;24.73;7.50;;;;;;;1.81;100.00;100515.22;5090913;28;20020;-77
2021/03/14 05:29:10;;;;;;;24.20;7.47;;;;;;;1.81;100.00;100524.75;5091440;28;20054;-75
2021/03/14 05:31:37;;;;;;;24.98;8.02;;;;;;;1.79;100.00;100526.41;5092219;28;20023;-77
2021/03/14 05:34:06;;;;;;;24.90;8.02;;;;;;;1.76;100.00;100531.53;5090475;28;20462;-76
2021/03/14 05:36:31;;;;;;;25.85;8.77;;;;;;;1.76;100.00;100529.78;5075092;28;20069;-76
2021/03/14 05:38:59;;;;;;;25.42;8.32;;;;;;;1.72;100.00;100543.56;5090920;28;20039;-76
2021/03/14 05:41:25;;;;;;;25.60;8.40;;;;;;;1.72;100.00;100540.97;5093764;28;20059;-77
2021/03/14 05:43:51;;;;;;;30.52;10.10;;;;;;;1.70;100.00;100546.13;5095719;28;20028;-76
2021/03/14 05:46:17;;;;;;;26.83;9.23;;;;;;;1.69;100.00;100546.03;5077117;28;20043;-76
2021/03/14 05:48:44;;;;;;;30.60;9.57;;;;;;;1.70;100.00;100553.03;5096409;28;20034;-76
2021/03/14 05:51:10;;;;;;;29.05;9.30;;;;;;;1.68;100.00;100547.78;5095164;28;20028;-76
2021/03/14 05:53:40;;;;;;;28.02;9.40;;;;;;;1.68;100.00;100549.50;5094846;28;20416;-76
2021/03/14 05:56:10;;;;;;;28.17;9.93;;;;;;;1.68;100.00;100563.41;5095203;28;20036;-76
2021/03/14 05:58:36;;;;;;;28.25;8.93;;;;;;;1.68;100.00;100567.75;5094627;28;20126;-77
2021/03/14 06:01:07;;;;;;;27.92;9.10;;;;;;;1.68;100.00;100565.16;5095960;28;20526;-75
2021/03/14 06:03:36;;;;;;;27.58;8.88;;;;;;;1.64;100.00;100574.56;5097337;28;20024;-74
2021/03/14 06:06:02;;;;;;;28.33;8.77;;;;;;;1.65;100.00;100581.56;5093975;28;20116;-75
2021/03/14 06:08:28;;;;;;;25.67;8.90;;;;;;;1.68;100.00;100576.44;5096092;28;20047;-76
2021/03/14 06:10:53;;;;;;;28.48;9.32;;;;;;;1.65;100.00;100571.13;5055934;28;20491;-76
2021/03/14 06:13:19;;;;;;;27.90;9.95;;;;;;;1.62;100.00;100581.44;5055316;28;20095;-75
2021/03/14 06:15:44;;;;;;;28.00;9.25;;;;;;;1.64;100.00;100578.88;5057440;28;20029;-75
2021/03/14 06:18:09;;;;;;;25.52;9.27;;;;;;;1.63;100.00;100590.13;5060073;28;20032;-75
2021/03/14 06:20:44;;;;;;;25.52;9.55;;;;;;;1.65;100.00;100585.88;5054482;28;20036;-76
2021/03/14 06:23:14;;;;;;;28.27;9.55;;;;;;;1.63;100.00;100591.03;5057538;28;20033;-75
2021/03/14 06:25:41;;;;;;;25.50;8.95;;;;;;;1.64;100.00;100591.91;5056726;28;20111;-75
2021/03/14 06:28:07;;;;;;;26.42;9.35;;;;;;;1.64;100.00;100608.44;5057413;28;20036;-76
2021/03/14 06:30:33;;;;;;;26.38;10.00;;;;;;;1.65;100.00;100606.72;5054557;28;20025;-75
2021/03/14 06:33:21;;;;;;;25.35;9.27;;;;;;;1.65;100.00;100615.44;5057541;28;20036;-75
2021/03/14 06:35:49;;;;;;;25.35;8.60;;;;;;;1.69;100.00;100625.13;5055709;28;20452;-75
2021/03/14 06:38:32;;;;;;;27.35;9.32;;;;;;;1.73;100.00;100621.81;5053857;28;20029;-76
2021/03/14 06:41:06;;;;;;;27.50;9.07;;;;;;;1.71;100.00;100622.59;5051311;28;20060;-76
2021/03/14 06:43:40;;;;;;;25.23;9.10;;;;;;;1.74;100.00;100633.13;5060325;28;20086;-75
2021/03/14 06:46:31;;;;;;;27.83;8.95;;;;;;;1.74;100.00;100626.19;5054117;28;20029;-76
2021/03/14 06:49:13;;;;;;;24.30;9.73;;;;;;;1.77;100.00;100637.56;5056054;28;20418;-75
2021/03/14 06:51:48;;;;;;;28.85;10.57;;;;;;;1.80;100.00;100635.94;5052881;28;20029;-75
2021/03/14 06:54:18;;;;;;;26.48;9.95;;;;;;;1.81;100.00;100642.94;5056406;28;20032;-74
2021/03/14 06:57:03;;;;;;;27.65;9.43;;;;;;;1.84;100.00;100652.59;5057739;28;20041;-65
2021/03/14 06:59:30;;;;;;;25.50;10.13;;;;;;;1.89;100.00;100654.56;5052970;28;20413;-75
2021/03/14 07:02:01;;;;;;;28.58;10.68;;;;;;;1.90;100.00;100660.63;5053681;28;20017;-76
2021/03/14 07:04:33;;;;;;;26.00;9.80;;;;;;;1.92;100.00;100658.97;5053257;28;20407;-75
2021/03/14 07:06:59;;;;;;;25.50;9.27;;;;;;;1.91;100.00;100672.84;5054812;28;20025;-74
2021/03/14 07:09:25;;;;;;;27.58;9.50;;;;;;;1.91;100.00;100683.28;5068766;28;20539;-74
2021/03/14 07:11:51;;;;;;;26.48;10.20;;;;;;;1.92;100.00;100679.81;5094057;28;20043;-75
2021/03/14 07:14:18;;;;;;;26.02;10.30;;;;;;;1.96;100.00;100678.22;5094397;28;20032;-71
2021/03/14 07:16:49;;;;;;;27.83;9.57;;;;;;;1.96;100.00;100686.94;5094090;28;20111;-76
2021/03/14 07:19:20;;;;;;;26.25;10.75;;;;;;;1.99;100.00;100680.94;5091397;28;20378;-75
2021/03/14 07:21:55;;;;;;;26.13;10.43;;;;;;;2.00;100.00;100690.56;5094574;28;20375;-75
2021/03/14 07:24:28;;;;;;;31.65;12.55;;;;;;;2.00;100.00;100687.94;5093059;28;20035;-74
2021/03/14 07:26:55;;;;;;;30.58;12.40;;;;;;;2.05;100.00;100699.41;5093656;28;20024;-75
2021/03/14 07:29:20;;;;;;;31.08;12.65;;;;;;;2.09;100.00;100693.47;5094434;28;20387;-75
2021/03/14 07:31:46;;;;;;;29.38;11.50;;;;;;;2.16;100.00;100705.03;5093608;28;20032;-76
2021/03/14 07:34:12;;;;;;;34.03;14.25;;;;;;;2.20;100.00;100714.72;5093715;28;20039;-75
2021/03/14 07:36:37;;;;;;;30.70;13.52;;;;;;;2.30;100.00;100723.78;5093896;28;20028;-75
2021/03/14 07:39:03;;;;;;;33.13;14.73;;;;;;;2.30;100.00;100724.69;5093249;28;20402;-75
2021/03/14 07:41:29;;;;;;;29.75;13.70;;;;;;;2.30;100.00;100724.69;5095644;28;20103;-75
2021/03/14 07:43:55;;;;;;;32.85;13.55;;;;;;;2.33;100.00;100727.41;5092484;28;20116;-75
2021/03/14 07:46:24;;;;;;;34.60;15.88;;;;;;;2.42;100.00;100732.06;5093453;28;20025;-75
2021/03/14 07:48:51;;;;;;;31.15;13.20;;;;;;;2.49;100.00;100739.28;5074713;28;20028;-72
2021/03/14 07:51:21;;;;;;;32.53;14.13;;;;;;;2.54;100.00;100744.66;5093992;28;20024;-73
2021/03/14 07:53:47;;;;;;;34.80;16.77;;;;;;;2.55;100.00;100746.41;5091883;28;20024;-73
2021/03/14 07:56:12;;;;;;;35.67;17.13;;;;;;;2.54;100.00;100750.75;5094228;28;20081;-73
2021/03/14 07:58:38;;;;;;;35.08;16.00;;;;;;;2.56;100.00;100759.53;5092313;28;20028;-73
2021/03/14 08:01:24;;;;;;;33.30;17.13;;;;;;;2.60;100.00;100770.97;5092843;28;20046;-72
2021/03/14 08:03:50;;;;;;;35.95;16.48;;;;;;;2.63;100.00;100771.06;5089488;28;20024;-73
2021/03/14 08:06:15;;;;;;;35.08;17.20;;;;;;;2.63;100.00;100768.47;5094091;28;20107;-73
2021/03/14 08:08:40;;;;;;;35.60;17.60;;;;;;;2.68;100.00;100781.66;5095446;28;20535;-73
2021/03/14 08:11:24;;;;;;;35.53;16.67;;;;;;;2.70;100.00;100778.28;5091615;28;20085;-73
2021/03/14 08:13:49;;;;;;;36.10;16.92;;;;;;;2.71;100.00;100790.50;5094970;28;20032;-66
2021/03/14 08:16:15;;;;;;;36.38;17.60;;;;;;;2.71;100.00;100795.75;5092879;28;20493;-73
2021/03/14 08:19:04;;;;;;;38.42;18.15;;;;;;;2.80;100.00;100797.78;5093131;28;20497;-73
2021/03/14 08:21:32;;;;;;;36.22;18.10;;;;;;;2.88;100.00;100803.25;5088450;28;20081;-74
2021/03/14 08:23:58;;;;;;;37.30;17.88;;;;;;;2.92;100.00;100806.03;5093162;28;20436;-73
2021/03/14 08:26:27;;;;;;;36.95;19.77;;;;;;;2.91;100.00;100808.59;5092804;28;20378;-73
2021/03/14 08:29:00;;;;;;;41.47;22.25;;;;;;;2.98;100.00;100815.81;5092389;28;20493;-73
2021/03/14 08:31:48;;;;;;;42.97;20.65;;;;;;;3.02;100.00;100825.53;5092409;28;20031;-74
2021/03/14 08:34:20;;;;;;;41.40;22.23;;;;;;;3.10;100.00;100824.09;5077101;28;20035;-72
2021/03/14 08:36:47;;;;;;;39.50;22.02;;;;;;;3.24;100.00;100824.53;5090177;28;20055;-73
2021/03/14 08:39:24;;;;;;;39.67;22.23;;;;;;;3.28;100.00;100826.41;5093090;28;20032;-65
2021/03/14 08:41:53;;;;;;;38.83;20.20;;;;;;;3.34;100.00;100830.97;5089638;28;20028;-73
2021/03/14 08:44:34;;;;;;;36.90;18.67;;;;;;;3.34;100.00;100835.31;5093065;28;20035;-74
2021/03/14 08:47:11;;;;;;;36.60;16.73;;;;;;;3.33;100.00;100834.41;5093066;28;20048;-74
2021/03/14 08:49:39;;;;;;;36.47;19.25;;;;;;;3.38;100.00;100842.41;5095018;28;20420;-74
2021/03/14 08:52:07;;;;;;;39.92;19.90;;;;;;;3.61;100.00;100848.38;5092067;28;20036;-74
2021/03/14 08:54:56;;;;;;;37.42;18.05;;;;;;;3.80;100.00;100848.16;5091211;28;20020;-74
2021/03/14 08:57:22;;;;;;;34.42;17.83;;;;;;;3.78;100.00;100854.19;5091339;28;20024;-74
2021/03/14 08:59:56;;;;;;;37.40;17.70;;;;;;;3.80;100.00;100852.47;5091969;28;20115;-74
2021/03/14 09:02:23;;;;;;;35.17;16.70;;;;;;;3.91;100.00;100850.22;5091496;28;20039;-72
2021/03/14 09:04:48;;;;;;;33.42;17.30;;;;;;;4.02;100.00;100856.69;5088580;28;20024;-74
2021/03/14 09:07:14;;;;;;;31.88;16.63;;;;;;;4.16;100.00;100857.97;5092529;28;20027;-74
2021/03/14 09:09:41;;;;;;;34.53;17.10;;;;;;;4.59;100.00;100862.72;5091637;28;20063;-74
2021/03/14 09:12:11;;;;;;;30.98;15.93;;;;;;;4.74;100.00;100867.53;5092139;28;20497;-74
2021/03/14 09:14:44;;;;;;;31.02;15.35;;;;;;;4.74;100.00;100873.66;5092412;28;20028;-74
2021/03/14 09:17:15;;;;;;;28.13;12.70;;;;;;;4.65;99.58;100873.41;5091515;28;20497;-74
2021/03/14 09:19:49;;;;;;;26.50;12.00;;;;;;;4.56;99.54;100875.72;5091980;28;20027;-74
2021/03/14 09:22:26;;;;;;;28.05;12.50;;;;;;;4.48;99.87;100876.38;5091078;28;20024;-73
2021/03/14 09:24:55;;;;;;;27.10;12.35;;;;;;;4.45;99.58;100878.91;5092236;28;20050;-74
2021/03/14 09:27:32;;;;;;;26.00;10.52;;;;;;;4.48;99.46;100881.63;5091459;28;20103;-66
2021/03/14 09:30:19;;;;;;;26.58;12.00;;;;;;;4.38;99.21;100889.16;5089515;28;20103;-73
2021/03/14 09:32:50;;;;;;;24.95;10.23;;;;;;;4.46;100.00;100883.31;5091172;28;20028;-74
2021/03/14 09:35:21;;;;;;;25.90;8.75;;;;;;;4.62;99.15;100892.50;5091831;28;20040;-77
2021/03/14 09:37:53;;;;;;;23.35;9.73;;;;;;;4.71;96.06;100894.50;5091942;28;20039;-78
2021/03/14 09:40:27;;;;;;;26.42;10.77;;;;;;;4.77;95.54;100891.19;5092978;28;20028;-75
2021/03/14 09:43:06;;;;;;;26.10;10.18;;;;;;;5.04;95.92;100898.94;5094084;28;20032;-70
2021/03/14 09:45:32;;;;;;;27.27;11.25;;;;;;;5.52;94.26;100902.81;5088811;28;20066;-74
2021/03/14 09:48:18;;;;;;;25.10;10.55;;;;;;;5.84;88.34;100903.66;5090794;28;20020;-71
2021/03/14 09:50:46;;;;;;;23.30;9.65;;;;;;;5.79;87.27;100913.13;5090852;28;20028;-74
2021/03/14 09:53:12;;;;;;;24.13;7.90;;;;;;;5.86;86.27;100907.19;5092168;28;20039;-73
2021/03/14 09:55:43;;;;;;;24.33;8.73;;;;;;;5.88;86.01;100917.72;5072668;28;20028;-73
2021/03/14 09:58:17;;;;;;;20.40;7.10;;;;;;;5.78;83.80;100926.22;5074394;28;20250;-73
2021/03/14 10:00:44;;;;;;;25.48;9.32;;;;;;;5.52;85.74;100927.31;5091021;28;20379;-75
2021/03/14 10:03:12;;;;;;;23.40;8.95;;;;;;;5.38;86.47;100926.06;5090886;28;20035;-76
2021/03/14 10:05:42;;;;;;;24.55;9.88;;;;;;;5.18;87.55;100942.13;5091536;28;20035;-76
2021/03/14 10:08:09;;;;;;;24.30;9.00;;;;;;;5.06;90.01;100940.06;5092349;28;20028;-72
2021/03/14 10:10:39;;;;;;;24.60;8.80;;;;;;;5.07;89.94;100931.34;5094382;28;20141;-72
2021/03/14 10:13:06;;;;;;;24.67;9.05;;;;;;;5.10;89.32;100938.41;5088024;28;20028;-70
2021/03/14 10:15:31;;;;;;;23.30;8.13;;;;;;;5.17;88.72;100935.13;5090876;28;20471;-72
2021/03/14 10:17:57;;;;;;;24.83;8.98;;;;;;;5.14;90.68;100948.16;5090238;28;20077;-69
2021/03/14 10:20:22;;;;;;;23.85;8.52;;;;;;;5.17;89.40;100950.84;5092157;28;20028;-75
2021/03/14 10:23:01;;;;;;;23.38;8.88;;;;;;;5.12;90.71;100960.31;5092015;28;20067;-75
2021/03/14 10:25:31;;;;;;;23.00;8.52;;;;;;;5.19;90.02;100951.78;5089780;28;20016;-76
2021/03/14 10:28:30;;;;;;;23.48;8.35;;;;;;;5.48;87.48;100959.56;5094574;28;20028;-71
2021/03/14 10:31:02;;;;;;;20.48;6.18;;;;;;;5.88;84.97;100957.97;5089743;28;20036;-77
2021/03/14 10:33:30;;;;;;;23.08;7.32;;;;;;;6.20;82.56;100954.41;5073683;28;20035;-73
2021/03/14 10:36:04;;;;;;;22.70;8.38;;;;;;;6.36;80.02;100958.28;5097845;28;20054;-65
2021/03/14 10:38:39;;;;;;;19.67;6.55;;;;;;;6.26;79.75;100954.53;5095791;28;20073;-70
2021/03/14 10:41:12;;;;;;;19.75;6.47;;;;;;;6.24;78.88;100949.25;5092368;28;20399;-70
2021/03/14 10:43:49;;;;;;;21.70;6.40;;;;;;;6.35;80.76;100946.88;5093151;28;20745;-75
2021/03/14 10:46:31;;;;;;;21.48;7.72;;;;;;;6.43;80.56;100954.94;5093288;28;20028;-70
2021/03/14 10:49:05;;;;;;;21.70;7.90;;;;;;;6.73;77.99;100961.75;5094478;28;20019;-66
2021/03/14 10:51:32;;;;;;;20.27;6.47;;;;;;;6.87;77.27;100962.91;5094468;28;20031;-64
2021/03/14 10:54:06;;;;;;;19.40;6.47;;;;;;;6.84;76.41;100972.47;5091017;28;20050;-64
2021/03/14 10:56:40;;;;;;;22.45;8.40;;;;;;;6.89;75.39;100971.72;5094275;28;20016;-64
2021/03/14 10:59:07;;;;;;;23.52;7.93;;;;;;;6.86;76.65;100976.00;5094159;28;20032;-63
2021/03/14 11:01:41;;;;;;;24.48;8.35;;;;;;;6.84;75.74;100975.09;5095061;28;20099;-64
2021/03/14 11:04:08;;;;;;;20.73;6.57;;;;;;;6.93;74.92;100967.41;5093543;28;20035;-65
2021/03/14 11:06:34;;;;;;;22.42;8.00;;;;;;;7.22;72.57;100980.28;5093213;28;20023;-65
2021/03/14 11:09:04;;;;;;;22.13;7.55;;;;;;;7.42;73.78;100978.06;5094591;28;20027;-64
2021/03/14 11:11:37;;;;;;;21.17;6.78;;;;;;;7.98;70.72;100979.94;5094228;28;20437;-64
2021/03/14 11:14:26;;;;;;;20.42;6.70;;;;;;;8.16;67.89;100989.91;5094997;28;20024;-63
2021/03/14 11:17:07;;;;;;;21.23;7.63;;;;;;;8.24;69.35;100998.78;5094676;28;20081;-66
2021/03/14 11:19:35;;;;;;;21.38;6.82;;;;;;;8.37;68.93;101000.78;5095077;28;20383;-65
2021/03/14 11:22:00;;;;;;;18.42;5.10;;;;;;;8.38;68.45;100994.63;5094398;28;20364;-68
2021/03/14 11:24:25;;;;;;;21.23;5.88;;;;;;;8.33;66.72;101011.22;5093231;28;20016;-64
2021/03/14 11:26:51;;;;;;;18.65;5.55;;;;;;;7.75;66.84;101008.50;5094122;28;20089;-69
2021/03/14 11:29:16;;;;;;;17.85;4.43;;;;;;;7.71;67.48;101001.41;5094836;28;20541;-66